Gaylord, MI (49735)

9:30 PM EDT on March 25, 2017 (GMT -0400)
Castlewood Drive | | Change Station
Active Advisory: Winter Weather Advisory

Elev 1315 ft 44.99 °N, 84.66 °W | Updated 32 seconds ago

Overcast
Overcast
30.6 °F
Feels Like 31 °F
N
0.0
Wind Variable Wind from East
Gusts 0.0 mph

Today
High -- | Low -- °F
--% Chance of Precip.
Yesterday
High -- | Low -- °F
Precip. -- in
Pressure 30.28 in
Visibility 10.0 miles
Clouds Mostly Cloudy 900 ft
Overcast 3300 ft
Windchill 31 °F
Dew Point 29 °F
Humidity 93%
Rainfall 0.09 in
Snow Depth Not available.
7:31 AM 7:57 PM
Waning Crescent, 5% visible
METAR KGLR 260053Z AUTO 07007KT 10SM BKN009 OVC033 00/M03 A3023 RMK AO2 UPB32E48 CIG 007V012 SLP254 P0000 T00001028
Pressure 30.28 in
Visibility 10.0 miles
Clouds Mostly Cloudy 900 ft
Overcast 3300 ft
Windchill 31 °F
Dew Point 29 °F
Humidity 93%
Rainfall 0.09 in
Snow Depth Not available.
7:31 AM 7:57 PM
Waning Crescent, 5% visible
METAR KGLR 260053Z AUTO 07007KT 10SM BKN009 OVC033 00/M03 A3023 RMK AO2 UPB32E48 CIG 007V012 SLP254 P0000 T00001028

Get Your Daily Forecast Email!

Thanks for signing up!

Be on the lookout for a verification email in your inbox.

You'll start receiving severe weather alerts in your inbox..

×

10-Day Weather Forecast

Almanac

Astronomy

Mar. 25, 2017 Rise Set
Actual Time
Civil Twilight
Nautical Twilight
Astronomical Twilight
Moon
Length of Visible Light
Length of Day
Tomorrow will be .
, % of the Moon is Illuminated

Today's Extremes

State Highs State Lows

Community

WunderPhotos

Upload Photos

1,962,540 photos uploaded!

WunderBlog® & News

Nearby

Air Quality

  Air Quality AQ Index Pollutant
Not available.

Snow Depth

Station Depth Elevation

Earthquake Activity

City Distance Mag. Time & Date
Minimum magnitude displayed is 2.5.

Earthquake Activity

City Distance Mag. Time & Date
Minimum magnitude displayed is 2.5.

Coastal Water Temperatures

Place Temperature

Stations

Nearby Weather Stations

Station Location Temp. Windchill Dew Point Humidity Wind Precip. Elev Updated Type
                   

Watches & Warnings

Winter Weather Advisory
Issued: 3:17 PM EDT Mar. 25, 2017 – National Weather Service

... Winter Weather Advisory in effect from 8 PM this evening to
8 am EDT Sunday...

The National Weather Service in Gaylord has issued a Winter
Weather Advisory for freezing rain resulting in some ice
accumulations... which is in effect from 8 PM this evening to 8 am
EDT Sunday.

* Expect freezing rain to develop around 8 PM and then diminish
around 8 am Sunday.

* The greatest amount of ice accumulation will occur between 2
am and 8 am Sunday.

* Total ice accumulations of 2/10 of an inch are expected.

* The ice will result in difficult travel conditions.

Precautionary/preparedness actions...

A Winter Weather Advisory means that periods of freezing rain
will cause travel difficulties. Be prepared for slippery roads and
hazardous travel. For the latest Road conditions... go to the mdot
website at Michigan.Gov.